Time,TemperatureF,DewpointF,PressureIn,WindDirection,WindDirectionDegrees,WindSpeedMPH,WindSpeedGustMPH,Humidity,HourlyPrecipIn,Conditions,Clouds,dailyrainin,SoftwareType,DateUTC
2013-08-10 00:11:00,84.0,60.0,29.95,North,0,0.0,0.0,44,0.00,,,0.00,,2013-08-10 05:11:00,
2013-08-10 00:22:00,84.0,60.0,29.95,North,0,0.0,0.0,44,0.00,,,0.00,,2013-08-10 05:22:00,
2013-08-10 00:32:00,83.0,64.0,29.96,North,0,0.0,0.0,52,0.00,,,0.00,,2013-08-10 05:32:00,
2013-08-10 00:42:00,83.0,64.0,29.96,North,0,0.0,0.0,52,0.00,,,0.00,,2013-08-10 05:42:00,
2013-08-10 00:52:00,83.0,64.0,29.96,North,0,0.0,0.0,52,0.00,,,0.00,,2013-08-10 05:52:00,
2013-08-10 01:02:00,83.0,64.0,29.96,North,0,0.0,0.0,52,0.00,,,0.00,,2013-08-10 06:02:00,
2013-08-10 03:43:00,79.0,70.0,29.97,North,0,0.0,0.0,73,0.00,,,0.00,,2013-08-10 08:43:00,
2013-08-10 03:53:00,78.0,68.0,29.98,North,0,0.0,0.0,72,0.00,,,0.00,,2013-08-10 08:53:00,
2013-08-10 04:02:00,78.0,68.0,29.98,North,0,0.0,0.0,72,0.00,,,0.00,,2013-08-10 09:02:00,
2013-08-10 04:12:00,78.0,68.0,29.98,North,0,0.0,0.0,72,0.00,,,0.00,,2013-08-10 09:12:00,
2013-08-10 04:21:00,78.0,68.0,29.98,North,0,0.0,0.0,72,0.00,,,0.00,,2013-08-10 09:21:00,
2013-08-10 04:32:00,77.0,67.0,29.97,North,0,0.0,0.0,72,0.00,,,0.00,,2013-08-10 09:32:00,
2013-08-10 04:43:00,77.0,67.0,29.97,North,0,0.0,0.0,72,0.00,,,0.00,,2013-08-10 09:43:00,
2013-08-10 04:52:00,77.0,68.0,29.97,North,0,0.0,0.0,73,0.00,,,0.00,,2013-08-10 09:52:00,
2013-08-10 05:02:00,77.0,68.0,29.97,North,0,0.0,0.0,73,0.00,,,0.00,,2013-08-10 10:02:00,
2013-08-10 05:11:00,77.0,68.0,29.97,North,0,0.0,0.0,73,0.00,,,0.00,,2013-08-10 10:11:00,
2013-08-10 05:22:00,77.0,68.0,29.97,North,0,0.0,0.0,73,0.00,,,0.00,,2013-08-10 10:22:00,
2013-08-10 05:33:00,77.0,68.0,29.97,North,0,0.0,0.0,73,0.00,,,0.00,,2013-08-10 10:33:00,
2013-08-10 05:53:00,74.0,66.0,29.97,North,0,0.0,0.0,76,0.00,,,0.00,,2013-08-10 10:53:00,
2013-08-10 06:02:00,74.0,66.0,29.97,North,0,0.0,0.0,76,0.00,,,0.00,,2013-08-10 11:02:00,
2013-08-10 06:11:00,74.0,66.0,29.97,North,0,0.0,0.0,76,0.00,,,0.00,,2013-08-10 11:11:00,
2013-08-10 06:22:00,74.0,66.0,29.97,North,0,0.0,0.0,76,0.00,,,0.00,,2013-08-10 11:22:00,
2013-08-10 06:33:00,73.0,66.0,29.97,North,0,0.0,0.0,78,0.00,,,0.00,,2013-08-10 11:33:00,
2013-08-10 06:43:00,73.0,66.0,29.97,North,0,0.0,0.0,78,0.00,,,0.00,,2013-08-10 11:43:00,
2013-08-10 06:53:00,73.0,66.0,29.97,North,0,0.0,0.0,78,0.00,,,0.00,,2013-08-10 11:53:00,
2013-08-10 07:01:00,71.0,65.0,29.98,North,0,0.0,0.0,81,0.00,,,0.00,,2013-08-10 12:01:00,
2013-08-10 07:11:00,71.0,65.0,29.98,North,0,0.0,0.0,81,0.00,,,0.00,,2013-08-10 12:11:00,
2013-08-10 07:22:00,71.0,65.0,29.98,North,0,0.0,0.0,81,0.00,,,0.00,,2013-08-10 12:22:00,
2013-08-10 07:32:00,71.0,65.0,29.98,North,0,0.0,0.0,81,0.00,,,0.00,,2013-08-10 12:32:00,
2013-08-10 07:42:00,71.0,65.0,29.99,North,0,0.0,0.0,81,0.00,,,0.00,,2013-08-10 12:42:00,
2013-08-10 07:52:00,71.0,65.0,29.99,North,0,0.0,0.0,81,0.00,,,0.00,,2013-08-10 12:52:00,
2013-08-10 08:01:00,71.0,65.0,29.99,North,0,0.0,0.0,81,0.00,,,0.00,,2013-08-10 13:01:00,
2013-08-10 08:11:00,74.0,69.0,30.00,North,0,0.0,0.0,84,0.00,,,0.00,,2013-08-10 13:11:00,
2013-08-10 08:21:00,74.0,69.0,30.00,North,0,0.0,0.0,84,0.00,,,0.00,,2013-08-10 13:21:00,
2013-08-10 08:30:00,79.0,70.0,30.00,North,0,0.0,0.0,74,0.00,,,0.00,,2013-08-10 13:30:00,
2013-08-10 08:32:00,74.0,69.0,30.00,North,0,0.0,0.0,84,0.00,,,0.00,,2013-08-10 13:32:00,
2013-08-10 08:43:00,79.0,70.0,30.00,North,0,0.0,0.0,74,0.00,,,0.00,,2013-08-10 13:43:00,
2013-08-10 08:52:00,79.0,70.0,30.00,North,0,0.0,0.0,74,0.00,,,0.00,,2013-08-10 13:52:00,
2013-08-10 09:02:00,79.0,70.0,30.00,North,0,0.0,0.0,74,0.00,,,0.00,,2013-08-10 14:02:00,
2013-08-10 09:12:00,79.0,70.0,30.00,North,0,0.0,0.0,74,0.00,,,0.00,,2013-08-10 14:12:00,
2013-08-10 09:22:00,79.0,70.0,30.00,North,0,0.0,0.0,74,0.00,,,0.00,,2013-08-10 14:22:00,
2013-08-10 10:34:00,89.0,71.0,30.02,North,0,0.0,0.0,55,0.00,,,0.00,,2013-08-10 15:34:00,
2013-08-10 10:43:00,89.0,71.0,30.02,North,0,0.0,0.0,55,0.00,,,0.00,,2013-08-10 15:43:00,
2013-08-10 10:52:00,89.0,71.0,30.02,North,0,0.0,0.0,55,0.00,,,0.00,,2013-08-10 15:52:00,
2013-08-10 11:01:00,92.0,69.0,30.03,North,0,0.0,0.0,48,0.00,,,0.00,,2013-08-10 16:01:00,
2013-08-10 11:11:00,92.0,69.0,30.03,North,0,0.0,0.0,48,0.00,,,0.00,,2013-08-10 16:11:00,
2013-08-10 11:22:00,92.0,69.0,30.03,North,0,0.0,0.0,48,0.00,,,0.00,,2013-08-10 16:22:00,
2013-08-10 11:32:00,92.0,69.0,30.03,North,0,0.0,0.0,48,0.00,,,0.00,,2013-08-10 16:32:00,
2013-08-10 11:43:00,94.0,71.0,30.04,North,0,0.0,0.0,47,0.00,,,0.00,,2013-08-10 16:43:00,
2013-08-10 12:02:00,97.0,71.0,30.03,North,0,0.0,0.0,43,0.00,,,0.00,,2013-08-10 17:02:00,
2013-08-10 12:12:00,97.0,71.0,30.03,North,0,0.0,0.0,43,0.00,,,0.00,,2013-08-10 17:12:00,
2013-08-10 12:22:00,97.0,71.0,30.03,North,0,0.0,0.0,43,0.00,,,0.00,,2013-08-10 17:22:00,
2013-08-10 12:33:00,96.0,69.0,30.04,North,0,0.0,0.0,42,0.00,,,0.00,,2013-08-10 17:33:00,
2013-08-10 12:43:00,97.0,71.0,30.03,North,0,0.0,0.0,43,0.00,,,0.00,,2013-08-10 17:43:00,
2013-08-10 12:52:00,97.0,71.0,30.03,North,0,0.0,0.0,43,0.00,,,0.00,,2013-08-10 17:52:00,
2013-08-10 13:01:00,97.0,71.0,30.03,North,0,0.0,0.0,43,0.00,,,0.00,,2013-08-10 18:01:00,
2013-08-10 13:11:00,97.0,71.0,30.03,North,0,0.0,0.0,43,0.00,,,0.00,,2013-08-10 18:11:00,
2013-08-10 13:32:00,100.0,70.0,30.02,North,0,0.0,0.0,38,0.00,,,0.00,,2013-08-10 18:32:00,
2013-08-10 13:44:00,100.0,70.0,30.02,North,0,0.0,0.0,38,0.00,,,0.00,,2013-08-10 18:44:00,
2013-08-10 13:52:00,100.0,70.0,30.02,North,0,0.0,0.0,38,0.00,,,0.00,,2013-08-10 18:52:00,
2013-08-10 14:01:00,100.0,70.0,30.02,North,0,0.0,0.0,38,0.00,,,0.00,,2013-08-10 19:01:00,
2013-08-10 15:33:00,103.0,69.0,29.99,North,0,0.0,0.0,34,0.00,,,0.00,,2013-08-10 20:33:00,
2013-08-10 15:43:00,103.0,69.0,29.99,North,0,0.0,0.0,34,0.00,,,0.00,,2013-08-10 20:43:00,
2013-08-10 16:42:00,103.0,64.0,29.95,North,0,0.0,0.0,28,0.00,,,0.00,,2013-08-10 21:42:00,
2013-08-10 16:43:00,103.0,66.0,29.93,North,0,0.0,0.0,31,0.00,,,0.00,,2013-08-10 21:43:00,
2013-08-10 16:52:00,103.0,64.0,29.95,North,0,0.0,0.0,28,0.00,,,0.00,,2013-08-10 21:52:00,
2013-08-10 17:01:00,103.0,66.0,29.93,North,0,0.0,0.0,31,0.00,,,0.00,,2013-08-10 22:01:00,
2013-08-10 17:11:00,103.0,66.0,29.93,North,0,0.0,0.0,31,0.00,,,0.00,,2013-08-10 22:11:00,
2013-08-10 17:21:00,103.0,66.0,29.93,North,0,0.0,0.0,31,0.00,,,0.00,,2013-08-10 22:21:00,
2013-08-10 17:32:00,103.0,66.0,29.93,North,0,0.0,0.0,31,0.00,,,0.00,,2013-08-10 22:32:00,
2013-08-10 18:01:00,102.0,64.0,29.92,North,0,0.0,0.0,29,0.00,,,0.00,,2013-08-10 23:01:00,
2013-08-10 18:12:00,102.0,64.0,29.92,North,0,0.0,0.0,29,0.00,,,0.00,,2013-08-10 23:12:00,
2013-08-10 18:20:00,100.0,62.0,29.93,North,0,0.0,0.0,29,0.00,,,0.00,,2013-08-10 23:20:00,
2013-08-10 18:22:00,101.0,62.0,29.92,North,0,0.0,0.0,28,0.00,,,0.00,,2013-08-10 23:22:00,
2013-08-10 18:32:00,100.0,62.0,29.93,North,0,0.0,0.0,29,0.00,,,0.00,,2013-08-10 23:32:00,
2013-08-10 18:43:00,100.0,62.0,29.93,North,0,0.0,0.0,29,0.00,,,0.00,,2013-08-10 23:43:00,
2013-08-10 18:53:00,100.0,62.0,29.93,North,0,0.0,0.0,29,0.00,,,0.00,,2013-08-10 23:53:00,
2013-08-10 19:01:00,100.0,62.0,29.93,North,0,0.0,0.0,29,0.00,,,0.00,,2013-08-11 00:01:00,
2013-08-10 19:11:00,100.0,62.0,29.93,North,0,0.0,0.0,29,0.00,,,0.00,,2013-08-11 00:11:00,
2013-08-10 22:05:00,82.0,67.0,30.02,North,0,0.0,0.0,61,0.00,,,0.00,,2013-08-11 03:05:00,
2013-08-10 22:27:00,82.0,67.0,30.02,North,0,0.0,0.0,61,0.00,,,0.00,,2013-08-11 03:27:00,
2013-08-10 22:35:00,82.0,67.0,30.02,North,0,0.0,0.0,61,0.00,,,0.00,,2013-08-11 03:35:00,
2013-08-10 22:43:00,82.0,67.0,30.02,North,0,0.0,0.0,61,0.00,,,0.00,,2013-08-11 03:43:00,